Time;durP1;ratioP1;P1;durP2;ratioP2;P2;SDS_P1;SDS_P2;PMS_P1;PMS_P2;Temp;Humidity;BMP_temperature;BMP_pressure;BME280_temperature;BME280_humidity;BME280_pressure;Samples;Min_cycle;Max_cycle;Signal;HPM_P1;HPM_P2
2022/07/27 00:00:11;;;;;;;6.13;2.20;;;;;;;;;;5097632;27;20404;-81
2022/07/27 00:02:38;;;;;;;9.37;2.23;;;;;;;;;;5112983;28;20451;-81
2022/07/27 00:05:04;;;;;;;7.07;2.08;;;;;;;;;;5113701;27;20499;-81
2022/07/27 00:07:30;;;;;;;7.28;2.30;;;;;;;;;;5114219;28;20407;-82
2022/07/27 00:09:56;;;;;;;5.50;2.20;;;;;;;;;;5097386;28;20400;-81
2022/07/27 00:12:22;;;;;;;8.10;2.40;;;;;;;;;;5098635;28;20435;-81
2022/07/27 00:14:48;;;;;;;5.35;2.30;;;;;;;;;;5121801;27;20921;-81
2022/07/27 00:17:14;;;;;;;5.40;2.20;;;;;;;;;;5133872;27;20510;-82
2022/07/27 00:19:40;;;;;;;5.53;2.30;;;;;;;;;;5134606;27;20482;-82
2022/07/27 00:22:06;;;;;;;5.07;2.08;;;;;;;;;;5127409;27;20416;-82
2022/07/27 00:24:33;;;;;;;7.05;2.47;;;;;;;;;;5131141;27;20415;-82
2022/07/27 00:26:59;;;;;;;9.13;2.30;;;;;;;;;;5114860;27;20497;-81
2022/07/27 00:29:25;;;;;;;6.80;2.13;;;;;;;;;;5134732;27;20418;-81
2022/07/27 00:31:51;;;;;;;6.45;2.40;;;;;;;;;;5116609;27;20892;-81
2022/07/27 00:34:17;;;;;;;5.43;2.33;;;;;;;;;;5095307;28;20420;-81
2022/07/27 00:36:43;;;;;;;6.87;2.70;;;;;;;;;;5113546;28;20424;-81
2022/07/27 00:39:09;;;;;;;8.23;2.47;;;;;;;;;;5080004;28;20801;-81
2022/07/27 00:41:35;;;;;;;5.22;2.30;;;;;;;;;;5113606;27;20424;-81
2022/07/27 00:44:04;;;;;;;5.75;2.35;;;;;;;;;;5091484;28;20416;-81
2022/07/27 00:46:30;;;;;;;5.90;2.70;;;;;;;;;;5096886;28;20401;-81
2022/07/27 00:48:56;;;;;;;5.83;2.47;;;;;;;;;;5124247;27;20633;-81
2022/07/27 00:51:23;;;;;;;8.40;2.60;;;;;;;;;;5112121;27;20418;-81
2022/07/27 00:53:51;;;;;;;5.47;2.70;;;13.80;99.90;;;;;;5127834;27;20437;-81
2022/07/27 00:56:17;;;;;;;7.40;2.60;;;;;;;;;;5113503;28;20430;-81
2022/07/27 00:58:45;;;;;;;6.20;2.80;;;;;;;;;;5113639;28;20422;-82
2022/07/27 01:01:11;;;;;;;5.97;2.63;;;;;;;;;;5113096;27;20395;-81
2022/07/27 01:03:37;;;;;;;7.80;2.53;;;;;;;;;;5129969;27;20475;-81
2022/07/27 01:06:03;;;;;;;5.40;2.55;;;;;;;;;;5132249;27;20406;-82
2022/07/27 01:08:30;;;;;;;7.63;2.80;;;;;;;;;;5133328;27;20505;-82
2022/07/27 01:10:56;;;;;;;8.10;2.40;;;;;;;;;;5123372;27;20420;-81
2022/07/27 01:13:24;;;;;;;6.57;2.42;;;13.70;99.90;;;;;;5127518;27;20426;-81
2022/07/27 01:15:52;;;;;;;8.90;2.13;;;14.00;99.90;;;;;;5123999;27;20428;-81
2022/07/27 01:18:28;;;;;;;6.35;2.20;;;;;;;;;;5117649;27;20423;-81
2022/07/27 01:20:54;;;;;;;7.18;2.45;;;;;;;;;;5112235;28;20836;-82
2022/07/27 01:23:22;;;;;;;6.95;2.55;;;;;;;;;;5109354;27;20503;-82
2022/07/27 01:25:51;;;;;;;8.07;2.40;;;;;;;;;;5112488;28;20918;-81
2022/07/27 01:28:17;;;;;;;6.03;2.25;;;;;;;;;;5113023;28;20912;-82
2022/07/27 01:30:43;;;;;;;9.23;2.20;;;;;;;;;;5122169;27;20426;-82
2022/07/27 01:33:10;;;;;;;6.75;2.30;;;;;;;;;;5111702;27;21096;-83
2022/07/27 01:35:42;;;;;;;8.65;2.63;;;;;;;;;;5114176;28;20968;-81
2022/07/27 01:38:09;;;;;;;6.95;2.15;;;;;;;;;;5115015;27;20417;-81
2022/07/27 01:40:36;;;;;;;7.45;2.40;;;;;;;;;;5117261;27;20416;-80
2022/07/27 01:43:03;;;;;;;8.50;2.40;;;;;;;;;;5121921;27;20450;-81
2022/07/27 01:45:29;;;;;;;6.13;2.40;;;;;;;;;;5111829;27;20514;-80
2022/07/27 01:47:55;;;;;;;6.33;2.27;;;;;;;;;;5095483;27;20926;-80
2022/07/27 01:50:22;;;;;;;8.00;2.80;;;;;;;;;;5110137;27;20838;-80
2022/07/27 01:52:48;;;;;;;7.32;2.85;;;;;;;;;;5122429;27;20421;-81
2022/07/27 01:55:14;;;;;;;9.30;2.63;;;;;;;;;;5113195;27;20424;-80
2022/07/27 01:57:40;;;;;;;8.90;2.90;;;;;;;;;;5094016;28;20427;-80
2022/07/27 02:00:09;;;;;;;9.63;2.90;;;;;;;;;;5112908;27;20412;-83
2022/07/27 02:02:35;;;;;;;7.25;2.53;;;;;;;;;;5108493;28;20420;-81
2022/07/27 02:05:01;;;;;;;7.45;2.70;;;;;;;;;;5114540;27;20412;-81
2022/07/27 02:07:30;;;;;;;9.40;2.60;;;;;;;;;;5112804;28;20614;-81
2022/07/27 02:09:56;;;;;;;13.68;2.67;;;;;;;;;;5112154;28;20396;-81
2022/07/27 02:12:35;;;;;;;7.60;2.63;;;;;;;;;;5126137;27;20406;-81
2022/07/27 02:15:05;;;;;;;10.30;2.90;;;;;;;;;;5132924;27;20493;-81
2022/07/27 02:17:31;;;;;;;8.40;2.60;;;;;;;;;;5132396;27;20804;-82
2022/07/27 02:19:57;;;;;;;9.63;2.60;;;;;;;;;;5132377;27;20393;-82
2022/07/27 02:22:23;;;;;;;7.28;2.78;;;;;;;;;;5121160;27;20467;-81
2022/07/27 02:24:49;;;;;;;8.80;3.07;;;;;;;;;;5123342;27;20483;-81
2022/07/27 02:27:15;;;;;;;6.65;2.53;;;;;;;;;;5118861;27;20418;-81
2022/07/27 02:29:41;;;;;;;7.50;2.50;;;;;;;;;;5131176;27;20924;-77
2022/07/27 02:32:07;;;;;;;7.88;2.50;;;;;;;;;;5120477;27;20416;-75
2022/07/27 02:34:33;;;;;;;7.85;2.60;;;;;;;;;;5119142;27;20453;-76
2022/07/27 02:36:59;;;;;;;7.13;2.60;;;;;;;;;;5134725;27;20436;-76
2022/07/27 02:39:25;;;;;;;5.38;2.38;;;;;;;;;;5135888;27;20404;-76
2022/07/27 02:41:51;;;;;;;9.15;2.83;;;;;;;;;;5122335;27;20444;-75
2022/07/27 02:44:19;;;;;;;6.93;2.55;;;;;;;;;;5125372;27;20425;-75
2022/07/27 02:46:45;;;;;;;5.82;2.00;;;;;;;;;;5111574;28;20461;-75
2022/07/27 02:49:11;;;;;;;6.68;2.60;;;;;;;;;;5112892;28;20753;-75
2022/07/27 02:51:37;;;;;;;9.88;2.78;;;;;;;;;;5113028;28;20806;-75
2022/07/27 02:54:03;;;;;;;10.23;2.78;;;;;;;;;;5094886;28;20404;-75
2022/07/27 02:56:29;;;;;;;7.55;2.53;;;;;;;;;;5111320;28;20420;-76
2022/07/27 02:58:55;;;;;;;7.90;2.70;;;;;;;;;;5111668;28;20401;-76
2022/07/27 03:01:22;;;;;;;8.13;2.78;;;;;;;;;;5127108;27;20414;-75
2022/07/27 03:03:48;;;;;;;8.77;3.40;;;;;;;;;;5132053;27;20900;-75
2022/07/27 03:06:14;;;;;;;9.10;3.40;;;;;;;;;;5131922;27;20467;-76
2022/07/27 03:08:40;;;;;;;12.45;3.60;;;;;;;;;;5114855;27;20395;-75
2022/07/27 03:11:07;;;;;;;11.80;4.78;;;;;;;;;;5114715;27;20408;-75
2022/07/27 03:13:33;;;;;;;10.45;4.65;;;;;;;;;;5124176;27;20470;-75
2022/07/27 03:16:00;;;;;;;11.48;5.13;;;;;;;;;;5091079;28;20448;-75
2022/07/27 03:18:26;;;;;;;13.32;5.70;;;;;;;;;;5110929;28;20740;-76
2022/07/27 03:20:52;;;;;;;14.38;5.72;;;;;;;;;;5127971;27;20424;-75
2022/07/27 03:23:18;;;;;;;11.93;5.50;;;;;;;;;;5118121;27;20896;-75
2022/07/27 03:25:44;;;;;;;11.55;6.30;;;;;;;;;;5094370;28;20424;-75
2022/07/27 03:28:10;;;;;;;13.40;6.13;;;;;;;;;;5128905;28;20418;-76
2022/07/27 03:30:36;;;;;;;12.23;5.50;;;;;;;;;;5131275;28;20402;-75
2022/07/27 03:33:02;;;;;;;11.97;6.17;;;;;;;;;;5120468;27;20438;-75
2022/07/27 03:35:29;;;;;;;13.45;5.70;;;;;;;;;;5111985;28;20419;-75
2022/07/27 03:37:55;;;;;;;12.82;5.70;;;;;;;;;;5121015;27;20418;-75
2022/07/27 03:40:21;;;;;;;12.13;5.50;;;;;;;;;;5115102;27;20419;-75
2022/07/27 03:42:47;;;;;;;14.32;5.75;;;;;;;;;;5111250;27;20495;-76
2022/07/27 03:45:13;;;;;;;13.90;6.03;;;;;;;;;;5123757;27;20430;-75
2022/07/27 03:47:39;;;;;;;13.48;6.30;;;;;;;;;;5129324;28;20507;-76
2022/07/27 03:50:06;;;;;;;12.27;5.73;;;;;;;;;;5129142;28;20651;-76
2022/07/27 03:52:32;;;;;;;12.87;5.50;;;;;;;;;;5129453;28;20955;-76
2022/07/27 03:54:58;;;;;;;15.43;6.20;;;;;;;;;;5115750;28;20897;-76
2022/07/27 03:57:24;;;;;;;12.80;5.95;;;;;;;;;;5110175;28;20448;-76
2022/07/27 03:59:51;;;;;;;12.40;5.70;;;;;;;;;;5121492;27;20555;-76
2022/07/27 04:02:17;;;;;;;9.25;4.90;;;;;;;;;;5096875;28;20407;-76
2022/07/27 04:04:43;;;;;;;13.63;5.55;;;;;;;;;;5126179;27;20755;-76
2022/07/27 04:07:09;;;;;;;10.27;5.10;;;;;;;;;;5076314;28;20423;-76
2022/07/27 04:09:36;;;;;;;12.10;4.90;;;;;;;;;;5123063;27;20412;-75
2022/07/27 04:12:02;;;;;;;9.70;4.90;;;;;;;;;;5118865;27;20504;-76
2022/07/27 04:14:29;;;;;;;10.23;4.50;;;;;;;;;;5129406;27;20497;-75
2022/07/27 04:16:56;;;;;;;10.65;4.47;;;;;;;;;;5123259;28;20438;-76
2022/07/27 04:19:22;;;;;;;11.40;4.43;;;;;;;;;;5113790;28;20419;-76
2022/07/27 04:21:48;;;;;;;9.10;4.00;;;;;;;;;;5125480;27;20446;-75
2022/07/27 04:24:14;;;;;;;9.75;3.83;;;;;;;;;;5101522;28;20421;-75
2022/07/27 04:26:40;;;;;;;9.13;3.80;;;;;;;;;;5116253;27;20418;-75
2022/07/27 04:29:06;;;;;;;8.57;4.23;;;;;;;;;;5130417;27;21172;-75
2022/07/27 04:31:32;;;;;;;10.10;4.15;;;;;;;;;;5113812;27;20426;-74
2022/07/27 04:33:59;;;;;;;8.50;3.50;;;;;;;;;;5123294;27;20433;-74
2022/07/27 04:36:26;;;;;;;8.07;3.33;;;;;;;;;;5109385;27;20840;-75
2022/07/27 04:38:52;;;;;;;10.27;3.90;;;;;;;;;;5121061;27;20954;-75
2022/07/27 04:41:18;;;;;;;11.00;3.70;;;;;;;;;;5109122;27;21102;-75
2022/07/27 04:43:44;;;;;;;6.10;3.22;;;;;;;;;;5129032;27;20465;-76
2022/07/27 04:46:12;;;;;;;7.97;3.50;;;;;;;;;;5126063;27;20404;-75
2022/07/27 04:48:38;;;;;;;8.90;3.58;;;;;;;;;;5126631;27;20470;-76
2022/07/27 04:51:04;;;;;;;8.65;3.30;;;;;;;;;;5112265;27;20406;-76
2022/07/27 04:53:30;;;;;;;9.43;3.33;;;;;;;;;;5131137;27;20415;-76
2022/07/27 04:55:58;;;;;;;9.85;3.20;;;;;;;;;;5128944;27;20459;-76
2022/07/27 04:58:24;;;;;;;8.13;3.30;;;;;;;;;;5120742;27;20913;-76
2022/07/27 05:00:51;;;;;;;12.15;3.58;;;;;;;;;;5131870;27;20414;-75
2022/07/27 05:03:17;;;;;;;6.97;3.63;;;;;;;;;;5104779;28;20427;-74
2022/07/27 05:05:43;;;;;;;9.57;3.67;;;;;;;;;;5133451;27;20424;-74
2022/07/27 05:08:09;;;;;;;9.18;3.25;;;;;;;;;;5138613;27;20509;-75
2022/07/27 05:10:36;;;;;;;7.30;3.00;;;;;;;;;;5128144;27;20403;-75
2022/07/27 05:13:02;;;;;;;9.77;3.22;;;;;;;;;;5103937;27;20469;-75
2022/07/27 05:15:29;;;;;;;10.85;3.33;;;;;;;;;;5127179;27;20513;-75
2022/07/27 05:17:55;;;;;;;8.20;3.20;;;;;;;;;;5128686;27;20411;-74
2022/07/27 05:20:21;;;;;;;7.07;3.00;;;;;;;;;;5123203;27;20933;-75
2022/07/27 05:22:47;;;;;;;8.32;2.88;;;;;;;;;;5128706;27;20450;-74
2022/07/27 05:25:13;;;;;;;8.35;3.45;;;;;;;;;;5148656;27;20932;-75
2022/07/27 05:27:39;;;;;;;7.45;3.30;;;;;;;;;;5116073;27;20456;-75
2022/07/27 05:30:06;;;;;;;10.35;3.30;;;;;;;;;;5125128;27;20774;-75
2022/07/27 05:32:32;;;;;;;10.25;3.25;;;;;;;;;;5127011;27;20452;-75
2022/07/27 05:34:58;;;;;;;10.82;3.17;;;;;;;;;;5112586;27;20433;-75
2022/07/27 05:37:25;;;;;;;6.30;2.90;;;;;;;;;;5101332;28;20414;-75
2022/07/27 05:39:51;;;;;;;7.82;3.08;;;;;;;;;;5111144;27;20414;-75
2022/07/27 05:42:17;;;;;;;9.70;3.10;;;;;;;;;;5110857;27;20731;-75
2022/07/27 05:44:43;;;;;;;9.05;2.90;;;;;;;;;;5120845;27;20407;-75
2022/07/27 05:47:09;;;;;;;6.57;2.80;;;;;;;;;;5104150;27;20420;-74
2022/07/27 05:49:35;;;;;;;6.13;2.90;;;;;;;;;;5111243;27;20849;-78
2022/07/27 05:52:01;;;;;;;8.23;2.60;;;;;;;;;;5115625;27;20422;-77
2022/07/27 05:54:27;;;;;;;7.55;2.80;;;;;;;;;;5121271;27;20420;-78
2022/07/27 05:56:53;;;;;;;9.88;2.85;;;;;;;;;;5112978;27;20436;-77
2022/07/27 05:59:19;;;;;;;8.00;3.10;;;;;;;;;;5118057;27;20422;-77
2022/07/27 06:01:45;;;;;;;8.55;2.92;;;;;;;;;;5114984;27;20459;-78
2022/07/27 06:04:11;;;;;;;6.70;2.33;;;;;;;;;;5122593;27;20415;-80
2022/07/27 06:09:22;;;;;;;6.80;2.20;;;;;;;;;;5111458;27;20426;-77
2022/07/27 06:11:48;;;;;;;8.13;2.30;;;;;;;;;;5135340;27;20914;-77
2022/07/27 06:14:14;;;;;;;8.15;1.98;;;;;;;;;;5121662;27;20422;-76
2022/07/27 06:16:40;;;;;;;6.40;1.90;;;;;;;;;;5122770;27;20461;-77
2022/07/27 06:19:06;;;;;;;6.93;1.90;;;;;;;;;;5111548;27;20416;-77
2022/07/27 06:21:32;;;;;;;6.50;1.85;;;15.40;99.90;;;;;;5120494;27;20418;-77
2022/07/27 06:23:58;;;;;;;7.97;1.90;;;;;;;;;;5116768;27;20746;-76
2022/07/27 06:26:24;;;;;;;7.28;1.70;;;;;;;;;;5123723;27;20465;-77
2022/07/27 06:28:51;;;;;;;6.72;2.10;;;;;;;;;;5118370;27;20422;-76
2022/07/27 06:31:17;;;;;;;8.02;1.80;;;;;;;;;;5111325;27;20553;-76
2022/07/27 06:33:43;;;;;;;9.23;2.08;;;;;;;;;;5116922;27;20434;-75
2022/07/27 06:36:09;;;;;;;7.35;1.90;;;;;;;;;;5125593;27;20422;-74
2022/07/27 06:38:36;;;;;;;8.57;2.28;;;;;;;;;;5091520;27;20475;-75
2022/07/27 06:41:02;;;;;;;5.55;2.20;;;;;;;;;;5116491;27;20481;-75
2022/07/27 06:43:31;;;;;;;7.57;2.40;;;15.50;99.90;;;;;;5094191;28;20424;-75
2022/07/27 06:45:57;;;;;;;7.83;2.47;;;;;;;;;;5110688;27;20493;-75
2022/07/27 06:48:23;;;;;;;5.90;2.30;;;;;;;;;;5113694;27;20412;-75
2022/07/27 06:50:50;;;;;;;7.33;2.30;;;15.90;99.90;;;;;;5117081;27;20460;-75
2022/07/27 06:53:17;;;;;;;8.57;2.55;;;;;;;;;;5124352;27;20426;-75
2022/07/27 06:55:43;;;;;;;6.70;2.30;;;;;;;;;;5101153;27;20443;-75
2022/07/27 06:58:09;;;;;;;7.05;2.10;;;;;;;;;;5118246;27;20428;-75
2022/07/27 07:00:35;;;;;;;12.32;2.58;;;;;;;;;;5120107;27;20470;-75
2022/07/27 07:03:03;;;;;;;6.97;2.40;;;16.10;99.90;;;;;;5125069;27;20429;-75
2022/07/27 07:05:30;;;;;;;6.57;2.10;;;;;;;;;;5111580;27;20423;-75
2022/07/27 07:07:56;;;;;;;8.18;3.40;;;;;;;;;;5104345;27;20414;-75
2022/07/27 07:10:23;;;;;;;9.85;2.88;;;;;;;;;;5126548;27;20472;-74
2022/07/27 07:12:50;;;;;;;8.90;2.45;;;16.70;99.90;;;;;;5110274;27;20464;-75
2022/07/27 07:15:16;;;;;;;9.55;2.20;;;17.00;99.90;;;;;;5118114;27;20753;-76
2022/07/27 07:17:42;;;;;;;6.55;2.40;;;17.20;99.90;;;;;;5122056;27;20699;-75
2022/07/27 07:20:08;;;;;;;7.78;1.85;;;;;;;;;;5128585;27;20938;-75
2022/07/27 07:22:35;;;;;;;8.33;2.03;;;;;;;;;;5124341;27;20905;-75
2022/07/27 07:25:01;;;;;;;5.93;1.75;;;;;;;;;;5124953;27;20493;-75
2022/07/27 07:27:27;;;;;;;7.63;1.80;;;17.50;99.90;;;;;;5126207;27;20964;-74
2022/07/27 07:29:53;;;;;;;6.80;1.90;;;;;;;;;;5106684;28;20450;-74
2022/07/27 07:32:23;;;;;;;7.45;1.80;;;17.70;99.90;;;;;;5127584;28;20489;-75
2022/07/27 07:34:50;;;;;;;7.47;1.88;;;;;;;;;;5112105;28;20471;-74
2022/07/27 07:37:16;;;;;;;5.28;1.50;;;;;;;;;;5125371;28;20424;-75
2022/07/27 07:39:42;;;;;;;7.30;1.70;;;;;;;;;;5114570;28;20435;-75
2022/07/27 07:42:08;;;;;;;6.65;1.50;;;18.00;99.90;;;;;;5115767;28;20461;-75
2022/07/27 07:44:34;;;;;;;4.30;1.60;;;;;;;;;;5094150;28;20828;-75
2022/07/27 07:47:00;;;;;;;7.50;1.67;;;;;;;;;;5119606;28;20425;-75
2022/07/27 07:49:26;;;;;;;10.50;1.80;;;18.20;99.90;;;;;;5115377;28;20428;-74
2022/07/27 07:51:52;;;;;;;5.93;1.63;;;;;;;;;;5117976;28;20423;-75
2022/07/27 07:54:18;;;;;;;6.57;1.58;;;;;;;;;;5109734;28;20420;-75
2022/07/27 07:56:44;;;;;;;4.67;1.50;;;18.60;99.90;;;;;;5111398;28;20517;-75
2022/07/27 07:59:10;;;;;;;4.40;1.50;;;17.90;99.90;;;;;;5114076;28;20545;-74
2022/07/27 08:01:36;;;;;;;5.50;1.60;;;17.80;99.90;;;;;;5122193;28;20421;-74
2022/07/27 08:04:02;;;;;;;6.85;1.60;;;;;;;;;;5133251;27;20406;-75
2022/07/27 08:06:28;;;;;;;5.03;2.05;;;17.00;99.90;;;;;;5112630;27;20533;-76
2022/07/27 08:08:54;;;;;;;4.72;1.63;;;16.80;99.90;;;;;;5135905;27;20803;-76
2022/07/27 08:11:20;;;;;;;6.78;1.80;;;;;;;;;;5127472;27;20692;-75
2022/07/27 08:13:46;;;;;;;5.78;1.77;;;;;;;;;;5133107;27;20447;-75
2022/07/27 08:16:13;;;;;;;6.97;1.88;;;;;;;;;;5108864;27;20933;-75
2022/07/27 08:18:39;;;;;;;5.45;1.80;;;16.50;99.90;;;;;;5134459;27;20441;-76
2022/07/27 08:21:05;;;;;;;4.30;1.80;;;;;;;;;;5108330;27;20424;-76
2022/07/27 08:23:31;;;;;;;4.63;1.80;;;;;;;;;;5119021;27;20471;-75
2022/07/27 08:25:57;;;;;;;6.85;1.80;;;;;;;;;;5109955;27;20770;-75
2022/07/27 08:28:24;;;;;;;5.30;1.80;;;;;;;;;;5131597;27;20415;-75
2022/07/27 08:30:50;;;;;;;4.97;1.60;;;;;;;;;;5126563;27;20418;-76
2022/07/27 08:33:16;;;;;;;5.63;1.67;;;;;;;;;;5108260;27;20456;-75
2022/07/27 08:35:43;;;;;;;6.30;1.70;;;;;;;;;;5117298;27;20427;-75
2022/07/27 08:38:10;;;;;;;7.03;1.60;;;;;;;;;;5126186;27;20410;-75
2022/07/27 08:40:37;;;;;;;6.97;1.80;;;17.30;99.90;;;;;;5103668;28;20416;-75
2022/07/27 08:43:03;;;;;;;5.97;1.70;;;;;;;;;;5114686;27;20760;-75
2022/07/27 08:45:30;;;;;;;6.47;1.65;;;;;;;;;;5110050;27;20418;-75
2022/07/27 08:47:56;;;;;;;5.05;1.45;;;;;;;;;;5120809;27;20432;-74
2022/07/27 08:50:22;;;;;;;6.83;1.70;;;17.90;99.90;;;;;;5111763;28;20467;-73
2022/07/27 08:52:54;;;;;;;5.15;1.60;;;;;;;;;;5122106;27;20416;-74
2022/07/27 08:55:21;;;;;;;5.07;1.40;;;18.20;99.90;;;;;;5117914;27;20428;-74
2022/07/27 08:57:47;;;;;;;4.88;1.48;;;;;;;;;;5122014;27;20542;-74
2022/07/27 09:00:13;;;;;;;4.25;1.42;;;19.20;99.90;;;;;;5122808;27;20976;-75
2022/07/27 09:02:41;;;;;;;5.40;1.48;;;19.40;99.90;;;;;;5121191;27;20514;-74
2022/07/27 09:05:08;;;;;;;4.72;1.73;;;19.50;99.90;;;;;;5122292;27;20459;-74
2022/07/27 09:07:34;;;;;;;5.27;1.43;;;19.00;99.90;;;;;;5118557;27;20432;-76
2022/07/27 09:10:00;;;;;;;4.87;1.40;;;;;;;;;;5133876;27;20417;-75
2022/07/27 09:12:27;;;;;;;5.25;1.30;;;;;;;;;;5115212;27;20410;-74
2022/07/27 09:15:06;;;;;;;4.43;1.38;;;19.00;99.90;;;;;;5136621;27;20410;-75
2022/07/27 09:17:32;;;;;;;3.92;1.23;;;18.90;99.90;;;;;;5124458;27;20444;-75
2022/07/27 09:20:08;;;;;;;4.80;1.48;;;19.10;99.90;;;;;;5120796;27;20428;-75
2022/07/27 09:22:41;;;;;;;6.07;1.40;;;;;;;;;;5116299;27;20395;-75
2022/07/27 09:25:08;;;;;;;7.27;1.40;;;18.90;99.90;;;;;;5116108;27;20403;-75
2022/07/27 09:27:35;;;;;;;3.40;1.48;;;;;;;;;;5114102;27;20910;-76
2022/07/27 09:30:02;;;;;;;2.92;1.40;;;;;;;;;;5112540;27;20439;-75
2022/07/27 09:32:29;;;;;;;6.20;2.00;;;;;;;;;;5117429;27;20417;-75
2022/07/27 09:34:55;;;;;;;4.93;2.05;;;;;;;;;;5133303;27;20527;-75
2022/07/27 09:37:25;;;;;;;3.75;1.40;;;;;;;;;;5116239;27;20427;-75
2022/07/27 09:40:09;;;;;;;5.95;1.73;;;;;;;;;;5119666;27;20426;-75
2022/07/27 09:42:35;;;;;;;6.72;2.03;;;18.00;99.90;;;;;;5102863;27;20416;-75
2022/07/27 09:45:01;;;;;;;4.90;1.60;;;;;;;;;;5106227;27;20423;-75
2022/07/27 09:47:29;;;;;;;5.53;1.63;;;;;;;;;;5124045;27;20414;-77
2022/07/27 09:49:56;;;;;;;6.85;1.85;;;;;;;;;;5114614;27;20595;-77
2022/07/27 09:52:27;;;;;;;9.10;1.92;;;;;;;;;;5118534;27;20430;-76
2022/07/27 09:54:53;;;;;;;8.98;2.42;;;;;;;;;;5098758;28;20428;-77
2022/07/27 09:57:20;;;;;;;6.55;1.70;;;;;;;;;;5121661;27;20908;-77
2022/07/27 09:59:47;;;;;;;6.97;1.73;;;;;;;;;;5112278;27;20443;-77
2022/07/27 10:02:13;;;;;;;6.07;1.70;;;19.20;99.90;;;;;;5114644;27;20435;-77
2022/07/27 10:04:40;;;;;;;5.93;1.40;;;19.50;99.90;;;;;;5129491;27;20415;-77
2022/07/27 10:07:06;;;;;;;7.75;1.60;;;19.80;99.90;;;;;;5119488;27;20424;-77
2022/07/27 10:09:32;;;;;;;4.97;1.45;;;;;;;;;;5097071;27;20970;-77
2022/07/27 10:11:58;;;;;;;4.20;1.42;;;;;;;;;;5113153;27;20418;-76
2022/07/27 10:14:24;;;;;;;4.05;1.35;;;19.70;99.90;;;;;;5128496;27;20414;-76
2022/07/27 10:16:51;;;;;;;5.53;1.70;;;19.60;99.90;;;;;;5121584;27;20503;-75
2022/07/27 10:19:29;;;;;;;4.90;1.30;;;19.40;99.90;;;;;;5124764;27;20469;-76
2022/07/27 10:21:55;;;;;;;4.50;1.52;;;;;;;;;;5119871;27;20414;-76
2022/07/27 10:24:35;;;;;;;5.87;1.40;;;19.30;99.90;;;;;;5128246;27;20768;-73
2022/07/27 10:27:20;;;;;;;4.50;1.35;;;;;;;;;;5125448;27;20920;-76
2022/07/27 10:29:47;;;;;;;4.82;1.35;;;;;;;;;;5124774;27;20419;-75
2022/07/27 10:32:24;;;;;;;6.78;1.52;;;19.10;99.90;;;;;;5131172;27;20878;-77
2022/07/27 10:34:50;;;;;;;5.38;1.42;;;;;;;;;;5120234;27;20807;-76
2022/07/27 10:37:23;;;;;;;5.45;1.35;;;;;;;;;;5112741;27;21309;-77
2022/07/27 10:42:41;;;;;;;6.00;2.15;;;;;;;;;;5118377;27;20449;-77
2022/07/27 10:45:12;;;;;;;6.67;1.67;;;19.80;99.90;;;;;;5117435;27;20412;-77
2022/07/27 10:47:44;;;;;;;3.75;1.20;;;20.00;99.90;;;;;;5121937;27;20501;-77
2022/07/27 10:50:16;;;;;;;4.65;1.50;;;;;;;;;;5130378;27;20580;-77
2022/07/27 10:52:43;;;;;;;5.23;1.40;;;;;;;;;;5129680;27;20950;-76
2022/07/27 10:55:29;;;;;;;5.93;1.23;;;20.00;99.90;;;;;;5112405;27;20459;-78
2022/07/27 10:58:01;;;;;;;4.50;1.25;;;20.10;99.90;;;;;;5110271;27;20456;-77
2022/07/27 11:00:48;;;;;;;4.32;1.50;;;20.10;99.90;;;;;;5134175;27;20496;-77
2022/07/27 11:03:32;;;;;;;3.60;1.23;;;;;;;;;;5118332;27;20423;-77
2022/07/27 11:06:30;;;;;;;5.70;1.60;;;19.80;99.90;;;;;;5111565;27;20434;-76
2022/07/27 11:08:57;;;;;;;3.67;1.20;;;;;;;;;;5074230;27;20426;-77
2022/07/27 11:11:25;;;;;;;3.95;1.20;;;19.60;99.90;;;;;;5121823;27;20420;-77
2022/07/27 11:13:56;;;;;;;3.97;1.30;;;19.50;99.90;;;;;;5101375;27;20450;-77
2022/07/27 11:16:22;;;;;;;4.00;1.20;;;19.50;99.90;;;;;;5110429;27;20419;-77
2022/07/27 11:19:02;;;;;;;4.03;1.30;;;19.70;99.90;;;;;;5123844;27;20461;-77
2022/07/27 11:21:29;;;;;;;3.58;1.00;;;;;;;;;;5119260;27;20416;-77
2022/07/27 11:24:02;;;;;;;5.70;1.27;;;20.20;99.90;;;;;;5128002;27;20420;-78
2022/07/27 11:26:35;;;;;;;3.58;1.30;;;20.20;99.90;;;;;;5114931;27;20446;-77
2022/07/27 11:29:01;;;;;;;3.72;1.27;;;;;;;;;;5114679;27;20754;-78
2022/07/27 11:31:27;;;;;;;6.17;1.33;;;;;;;;;;5120548;27;20426;-77
2022/07/27 11:33:58;;;;;;;2.70;1.13;;;20.00;99.90;;;;;;5094147;28;20411;-77
2022/07/27 11:36:37;;;;;;;4.60;1.20;;;19.70;99.90;;;;;;5110615;28;20429;-77
2022/07/27 11:39:05;;;;;;;5.15;1.30;;;19.70;99.90;;;;;;5100915;28;20439;-76
2022/07/27 11:41:33;;;;;;;4.22;1.10;;;19.80;99.90;;;;;;5127111;27;20475;-76
2022/07/27 11:44:13;;;;;;;3.83;1.00;;;19.90;99.90;;;;;;5135395;27;20406;-77
2022/07/27 11:46:41;;;;;;;3.70;1.30;;;;;;;;;;5133770;27;20505;-78
2022/07/27 11:49:12;;;;;;;3.42;1.13;;;20.00;99.90;;;;;;5126161;27;20517;-76
2022/07/27 11:51:44;;;;;;;2.88;1.15;;;20.20;99.90;;;;;;5123967;27;20420;-76
2022/07/27 11:54:31;;;;;;;2.13;1.10;;;20.20;99.90;;;;;;5108408;27;20418;-75
2022/07/27 11:57:05;;;;;;;3.20;0.93;;;;;;;;;;5133327;27;20471;-77
2022/07/27 11:59:37;;;;;;;3.15;1.10;;;21.00;99.90;;;;;;5122313;27;20768;-76
2022/07/27 12:02:16;;;;;;;2.63;1.10;;;21.00;99.90;;;;;;5120115;27;20436;-76
2022/07/27 12:04:50;;;;;;;3.72;0.88;;;20.80;99.90;;;;;;5102012;27;20429;-76
2022/07/27 12:07:19;;;;;;;2.25;1.00;;;20.90;99.90;;;;;;5121858;27;20448;-77
2022/07/27 12:09:48;;;;;;;3.80;1.10;;;20.70;99.90;;;;;;5122453;27;20890;-77
2022/07/27 12:12:18;;;;;;;4.03;1.07;;;20.80;99.90;;;;;;5106431;27;20921;-77
2022/07/27 12:14:49;;;;;;;2.90;1.27;;;20.80;99.90;;;;;;5118791;27;20478;-77
2022/07/27 12:17:33;;;;;;;3.53;1.13;;;20.50;99.90;;;;;;5121040;27;20416;-76
2022/07/27 12:20:02;;;;;;;3.75;1.27;;;20.40;99.90;;;;;;5133849;27;20448;-76
2022/07/27 12:22:37;;;;;;;5.63;1.20;;;20.40;99.90;;;;;;5121449;27;20929;-77
2022/07/27 12:25:10;;;;;;;5.00;1.25;;;20.30;99.90;;;;;;5109357;27;20426;-76
2022/07/27 12:27:37;;;;;;;4.43;1.10;;;20.40;99.90;;;;;;5109605;27;20428;-76
2022/07/27 12:30:09;;;;;;;2.85;0.90;;;20.50;99.90;;;;;;5130736;27;20403;-76
2022/07/27 12:32:43;;;;;;;3.55;1.13;;;;;;;;;;5096212;27;20806;-76
2022/07/27 12:35:22;;;;;;;3.28;1.08;;;19.90;99.90;;;;;;5116514;27;20431;-76
2022/07/27 12:37:56;;;;;;;8.80;0.98;;;20.20;99.90;;;;;;5117282;27;20421;-76
2022/07/27 12:40:22;;;;;;;3.17;0.98;;;;;;;;;;5118316;27;20408;-76
2022/07/27 12:43:04;;;;;;;2.50;1.00;;;21.00;99.90;;;;;;5116347;27;20456;-76
2022/07/27 12:45:35;;;;;;;5.30;1.17;;;20.90;99.90;;;;;;5120266;27;20480;-76
2022/07/27 12:48:19;;;;;;;2.37;0.93;;;21.10;99.90;;;;;;5118992;27;20501;-76
2022/07/27 12:50:47;;;;;;;2.65;1.05;;;21.40;99.90;;;;;;5112176;27;20412;-76
2022/07/27 12:53:15;;;;;;;4.75;1.27;;;21.70;99.90;;;;;;5134140;27;20878;-77
2022/07/27 12:55:43;;;;;;;3.95;1.10;;;22.10;99.90;;;;;;5112843;27;20475;-77
2022/07/27 12:58:10;;;;;;;5.88;1.00;;;22.10;99.90;;;;;;5120213;27;20413;-76
2022/07/27 13:00:36;;;;;;;4.15;1.20;;;22.20;99.90;;;;;;5124248;27;20394;-76
2022/07/27 13:03:03;;;;;;;4.30;1.40;;;22.30;99.90;;;;;;5123659;27;20424;-76
2022/07/27 13:05:30;;;;;;;5.43;1.20;;;21.90;99.90;;;;;;5107695;27;20410;-75
2022/07/27 13:07:56;;;;;;;4.77;1.30;;;;;;;;;;5127287;27;20418;-76
2022/07/27 13:10:22;;;;;;;4.20;1.00;;;21.30;99.90;;;;;;5106235;27;20416;-75
2022/07/27 13:12:49;;;;;;;3.22;1.20;;;21.20;99.90;;;;;;5122926;27;20469;-76
2022/07/27 13:15:15;;;;;;;6.10;1.40;;;;;;;;;;5120517;27;20782;-77
2022/07/27 13:17:41;;;;;;;4.25;1.30;;;21.00;99.90;;;;;;5132127;27;20422;-77
2022/07/27 13:20:09;;;;;;;4.15;1.35;;;21.10;99.90;;;;;;5122916;27;20418;-77
2022/07/27 13:22:39;;;;;;;4.20;1.10;;;21.00;99.90;;;;;;5086999;27;21438;-77
2022/07/27 13:25:06;;;;;;;3.78;1.27;;;;;;;;;;5113205;27;20483;-77
2022/07/27 13:27:32;;;;;;;6.38;1.40;;;20.80;99.90;;;;;;5113622;27;20408;-76
2022/07/27 13:29:58;;;;;;;4.93;1.27;;;;;;;;;;5109929;27;20800;-78
2022/07/27 13:32:25;;;;;;;6.25;1.40;;;;;;;;;;5115865;27;20900;-77
2022/07/27 13:34:51;;;;;;;3.05;1.17;;;20.70;99.90;;;;;;5129182;27;20953;-76
2022/07/27 13:37:16;;;;;;;5.77;1.10;;;20.80;99.90;;;;;;5100802;27;20503;-76
2022/07/27 13:39:42;;;;;;;5.17;1.20;;;20.80;99.90;;;;;;5128311;27;20494;-77
2022/07/27 13:42:08;;;;;;;3.83;1.10;;;;;;;;;;5111188;27;20416;-76
2022/07/27 13:44:34;;;;;;;4.78;1.20;;;;;;;;;;5137773;27;20413;-76
2022/07/27 13:47:01;;;;;;;5.63;1.55;;;;;;;;;;5123420;27;20425;-77
2022/07/27 13:49:27;;;;;;;8.57;1.85;;;;;;;;;;5101042;28;20916;-78
2022/07/27 13:51:54;;;;;;;5.70;1.70;;;20.90;99.90;;;;;;5105735;27;20423;-78
2022/07/27 13:54:20;;;;;;;6.53;1.33;;;;;;;;;;5131718;27;20430;-78
2022/07/27 13:56:46;;;;;;;5.00;1.58;;;;;;;;;;5110512;27;20447;-77
2022/07/27 13:59:12;;;;;;;6.55;1.55;;;;;;;;;;5091999;27;20412;-76
2022/07/27 14:01:38;;;;;;;4.97;1.75;;;21.10;99.90;;;;;;5113587;27;20404;-76
2022/07/27 14:04:05;;;;;;;4.85;1.10;;;21.60;99.90;;;;;;5113175;28;20906;-77
2022/07/27 14:06:34;;;;;;;8.50;1.80;;;21.10;99.90;;;;;;5129962;27;20420;-77
2022/07/27 14:09:01;;;;;;;6.40;1.30;;;21.10;99.90;;;;;;5130696;27;20548;-77
2022/07/27 14:11:27;;;;;;;4.53;1.40;;;21.20;99.90;;;;;;5130139;27;20455;-77